Time;durP1;ratioP1;P1;durP2;ratioP2;P2;SDS_P1;SDS_P2;PMS_P1;PMS_P2;Temp;Humidity;BMP_temperature;BMP_pressure;BME280_temperature;BME280_humidity;BME280_pressure;Samples;Min_cycle;Max_cycle;Signal;HPM_P1;HPM_P2
2023/05/24 00:02:14;;;;;;;15.63;4.43;;;13.30;96.50;;;;;;5094761;28;20444;-50
2023/05/24 00:04:41;;;;;;;14.73;4.40;;;13.10;96.40;;;;;;5094608;28;20494;-50
2023/05/24 00:07:08;;;;;;;6.77;2.90;;;13.00;96.50;;;;;;5076527;28;20805;-50
2023/05/24 00:09:34;;;;;;;16.33;4.60;;;13.20;96.60;;;;;;5094358;28;20443;-50
2023/05/24 00:12:03;;;;;;;14.07;3.70;;;12.90;96.50;;;;;;5094555;28;20500;-50
2023/05/24 00:14:29;;;;;;;13.23;4.00;;;13.30;96.70;;;;;;5094528;28;20414;-49
2023/05/24 00:16:56;;;;;;;10.73;3.57;;;13.00;96.60;;;;;;5094847;28;20529;-48
2023/05/24 00:19:22;;;;;;;14.80;4.30;;;13.10;96.60;;;;;;5094052;28;20436;-48
2023/05/24 00:21:49;;;;;;;9.73;4.13;;;13.00;96.60;;;;;;5094284;28;20535;-49
2023/05/24 00:24:16;;;;;;;11.70;3.80;;;13.00;96.60;;;;;;5076042;28;21003;-49
2023/05/24 00:26:43;;;;;;;13.63;4.07;;;13.10;96.60;;;;;;5094384;28;20440;-50
2023/05/24 00:29:11;;;;;;;14.33;4.07;;;13.20;96.70;;;;;;5075931;28;20430;-49
2023/05/24 00:31:38;;;;;;;12.10;4.00;;;12.50;96.30;;;;;;5076133;28;20989;-50
2023/05/24 00:34:05;;;;;;;9.57;3.70;;;12.80;96.40;;;;;;5076153;28;20457;-50
2023/05/24 00:36:32;;;;;;;8.83;3.10;;;13.20;96.60;;;;;;5075864;28;20446;-49
2023/05/24 00:38:59;;;;;;;14.47;3.50;;;13.20;96.70;;;;;;5075773;28;20425;-50
2023/05/24 00:41:26;;;;;;;8.70;3.40;;;12.90;96.50;;;;;;5093881;28;20941;-50
2023/05/24 00:43:52;;;;;;;13.47;3.50;;;13.20;96.70;;;;;;5075762;28;21034;-49
2023/05/24 00:46:26;;;;;;;14.40;3.83;;;13.00;96.70;;;;;;5076105;28;20819;-50
2023/05/24 00:48:54;;;;;;;7.90;3.00;;;12.60;96.80;;;;;;5093775;28;20875;-50
2023/05/24 00:51:21;;;;;;;10.10;3.40;;;12.70;96.60;;;;;;5075646;28;20478;-49
2023/05/24 00:53:49;;;;;;;11.73;3.10;;;12.80;96.70;;;;;;5094064;28;20422;-49
2023/05/24 00:56:17;;;;;;;13.17;3.73;;;12.80;96.60;;;;;;5093765;28;20497;-50
2023/05/24 00:58:44;;;;;;;11.17;3.23;;;12.60;96.50;;;;;;5075121;28;20431;-50
2023/05/24 01:01:11;;;;;;;14.97;3.67;;;13.30;96.80;;;;;;5093467;28;20463;-49
2023/05/24 01:03:40;;;;;;;12.30;4.10;;;12.90;96.50;;;;;;5093596;28;20454;-50
2023/05/24 01:06:08;;;;;;;11.90;3.50;;;12.90;96.50;;;;;;5075568;28;20437;-49
2023/05/24 01:08:46;;;;;;;10.57;3.50;;;13.00;96.50;;;;;;5075025;28;20426;-49
2023/05/24 01:11:21;;;;;;;8.80;3.10;;;12.70;96.30;;;;;;5093331;28;20498;-50
2023/05/24 01:13:58;;;;;;;8.63;3.00;;;12.70;96.30;;;;;;5075311;28;20460;-48
2023/05/24 01:16:33;;;;;;;7.87;2.87;;;12.90;96.30;;;;;;5075172;28;20459;-50
2023/05/24 01:19:08;;;;;;;15.63;3.17;;;13.40;96.50;;;;;;5074891;28;20537;-50
2023/05/24 01:21:47;;;;;;;7.97;2.77;;;13.00;96.30;;;;;;5074925;28;20480;-50
2023/05/24 01:24:25;;;;;;;8.93;3.57;;;13.10;96.20;;;;;;5093307;28;20486;-50
2023/05/24 01:27:11;;;;;;;9.13;2.97;;;13.10;96.30;;;;;;5075092;28;20451;-50
2023/05/24 01:29:38;;;;;;;12.57;3.60;;;12.80;96.00;;;;;;5092768;28;20869;-50
2023/05/24 01:32:06;;;;;;;12.83;3.43;;;13.40;96.30;;;;;;5093275;28;20410;-49
2023/05/24 01:34:33;;;;;;;12.83;3.50;;;13.10;96.20;;;;;;5075068;28;20446;-50
2023/05/24 01:36:59;;;;;;;9.73;3.07;;;13.30;96.30;;;;;;5093120;28;20404;-50
2023/05/24 01:39:29;;;;;;;7.63;2.83;;;13.00;96.20;;;;;;5092717;28;20432;-50
2023/05/24 01:42:09;;;;;;;11.73;2.97;;;13.00;96.10;;;;;;5093052;28;20410;-50
2023/05/24 01:44:39;;;;;;;14.57;3.20;;;13.00;96.10;;;;;;5092863;28;21050;-50
2023/05/24 01:47:18;;;;;;;12.77;3.10;;;13.50;96.40;;;;;;5092139;28;20409;-50
2023/05/24 01:49:50;;;;;;;12.50;3.73;;;13.20;96.20;;;;;;5092451;28;20447;-51
2023/05/24 01:52:21;;;;;;;5.03;2.27;;;13.50;96.30;;;;;;5092652;28;20429;-51
2023/05/24 01:54:52;;;;;;;13.77;3.20;;;13.50;96.30;;;;;;5092834;28;20436;-50
2023/05/24 01:57:21;;;;;;;16.13;3.90;;;13.10;96.00;;;;;;5074468;28;20455;-50
2023/05/24 01:59:49;;;;;;;9.40;2.83;;;13.30;96.10;;;;;;5074026;28;20470;-50
2023/05/24 02:02:16;;;;;;;15.77;3.13;;;13.00;95.90;;;;;;5092856;28;20435;-49
2023/05/24 02:04:43;;;;;;;9.07;2.90;;;13.50;96.30;;;;;;5092439;28;20499;-50
2023/05/24 02:07:10;;;;;;;15.70;4.53;;;12.50;95.70;;;;;;5074483;28;20422;-50
2023/05/24 02:09:37;;;;;;;12.73;3.83;;;12.90;96.00;;;;;;5092162;28;20414;-50
2023/05/24 02:12:05;;;;;;;11.00;2.80;;;13.00;96.20;;;;;;5092419;28;20394;-49
2023/05/24 02:14:32;;;;;;;19.90;3.97;;;13.00;96.20;;;;;;5092682;28;20417;-50
2023/05/24 02:17:01;;;;;;;11.07;3.50;;;13.50;96.60;;;;;;5074846;28;20953;-50
2023/05/24 02:19:28;;;;;;;9.90;3.33;;;12.90;96.40;;;;;;5092578;28;20496;-50
2023/05/24 02:21:54;;;;;;;12.27;3.57;;;13.40;96.70;;;;;;5075190;28;20446;-50
2023/05/24 02:24:21;;;;;;;13.40;3.60;;;13.10;96.60;;;;;;5074434;28;20475;-50
2023/05/24 02:26:48;;;;;;;12.30;3.30;;;13.50;97.00;;;;;;5092332;28;20440;-51
2023/05/24 02:29:14;;;;;;;10.47;3.10;;;13.00;96.80;;;;;;5092064;28;20783;-49
2023/05/24 02:31:42;;;;;;;15.07;3.73;;;12.60;96.60;;;;;;5092279;28;20460;-50
2023/05/24 02:34:09;;;;;;;12.87;3.40;;;13.00;96.80;;;;;;5092241;28;20498;-49
2023/05/24 02:36:36;;;;;;;14.20;3.70;;;13.00;96.90;;;;;;5073856;28;20536;-50
2023/05/24 02:39:03;;;;;;;10.10;4.10;;;12.90;96.90;;;;;;5092017;28;20805;-49
2023/05/24 02:41:30;;;;;;;12.80;3.40;;;13.40;97.10;;;;;;5073894;28;20461;-50
2023/05/24 02:43:56;;;;;;;10.20;2.80;;;13.20;97.00;;;;;;5092004;28;20452;-50
2023/05/24 02:46:23;;;;;;;10.53;3.40;;;13.50;97.20;;;;;;5092131;28;20406;-50
2023/05/24 02:48:51;;;;;;;7.80;3.10;;;12.80;96.90;;;;;;5073602;28;20427;-50
2023/05/24 02:51:18;;;;;;;9.27;2.87;;;13.00;97.10;;;;;;5073516;28;20449;-50
2023/05/24 02:53:44;;;;;;;10.53;3.47;;;12.80;97.10;;;;;;5091985;28;20951;-50
2023/05/24 02:56:16;;;;;;;15.30;4.20;;;13.30;97.40;;;;;;5073828;28;20454;-51
2023/05/24 02:58:43;;;;;;;9.50;3.60;;;13.00;97.30;;;;;;5075071;28;20870;-50
2023/05/24 03:01:11;;;;;;;9.63;5.23;;;13.40;97.60;;;;;;5077770;28;20547;-51
2023/05/24 03:03:38;;;;;;;17.37;4.37;;;12.90;97.40;;;;;;5078082;28;20432;-50
2023/05/24 03:06:07;;;;;;;12.77;3.60;;;13.40;97.60;;;;;;5078002;28;20595;-50
2023/05/24 03:08:36;;;;;;;9.00;2.80;;;13.00;97.50;;;;;;5077297;28;20478;-50
2023/05/24 03:11:03;;;;;;;9.23;3.33;;;12.40;97.20;;;;;;5077701;28;20470;-51
2023/05/24 03:13:29;;;;;;;12.47;3.77;;;12.80;97.40;;;;;;5095987;28;20438;-50
2023/05/24 03:15:56;;;;;;;13.00;3.90;;;13.40;97.80;;;;;;5077585;28;20481;-50
2023/05/24 03:18:23;;;;;;;9.30;2.77;;;13.00;97.60;;;;;;5095271;28;20413;-51
2023/05/24 03:20:51;;;;;;;14.40;3.73;;;13.30;97.80;;;;;;5077349;28;20480;-50
2023/05/24 03:23:19;;;;;;;13.10;4.60;;;13.40;97.80;;;;;;5077448;28;20420;-50
2023/05/24 03:25:45;;;;;;;12.60;4.17;;;13.60;97.90;;;;;;5077162;28;20462;-50
2023/05/24 03:28:14;;;;;;;16.90;4.30;;;13.10;97.70;;;;;;5095304;28;20405;-50
2023/05/24 03:30:42;;;;;;;16.67;4.47;;;13.40;97.80;;;;;;5077066;28;20475;-49
2023/05/24 03:33:09;;;;;;;18.40;4.00;;;13.50;97.80;;;;;;5077175;28;20429;-49
2023/05/24 03:35:36;;;;;;;12.20;3.80;;;12.70;97.40;;;;;;5076955;28;20426;-50
2023/05/24 03:38:03;;;;;;;9.90;3.30;;;13.00;97.50;;;;;;5076988;28;20424;-51
2023/05/24 03:40:33;;;;;;;18.40;4.37;;;12.60;97.40;;;;;;5076715;28;20451;-50
2023/05/24 03:43:04;;;;;;;13.67;4.90;;;13.10;97.60;;;;;;5077061;28;20414;-50
2023/05/24 03:45:51;;;;;;;11.33;3.70;;;13.00;97.60;;;;;;5094063;28;20454;-49
2023/05/24 03:48:19;;;;;;;12.60;4.20;;;12.90;97.60;;;;;;5076624;28;20420;-49
2023/05/24 03:50:46;;;;;;;11.07;4.10;;;13.00;97.60;;;;;;5076762;28;20457;-51
2023/05/24 03:53:13;;;;;;;9.73;4.00;;;13.00;97.70;;;;;;5076638;28;20820;-49
2023/05/24 03:55:41;;;;;;;10.73;3.17;;;13.00;97.70;;;;;;5076678;28;20800;-50
2023/05/24 03:58:07;;;;;;;10.23;3.90;;;13.40;97.90;;;;;;5076172;28;20487;-51
2023/05/24 04:00:34;;;;;;;13.60;4.20;;;13.40;97.90;;;;;;5076437;28;20500;-51
2023/05/24 04:03:02;;;;;;;10.80;3.93;;;13.30;97.80;;;;;;5076702;28;20427;-51
2023/05/24 04:05:29;;;;;;;15.17;5.40;;;12.50;97.40;;;;;;5076627;28;20505;-50
2023/05/24 04:07:56;;;;;;;14.33;4.40;;;13.00;97.60;;;;;;5094557;28;20453;-51
2023/05/24 04:10:22;;;;;;;16.63;4.53;;;12.90;97.60;;;;;;5093727;28;20453;-50
2023/05/24 04:12:51;;;;;;;14.57;4.40;;;13.30;97.70;;;;;;5076561;28;20451;-49
2023/05/24 04:15:17;;;;;;;12.90;3.90;;;13.50;97.70;;;;;;5094628;28;20433;-49
2023/05/24 04:17:45;;;;;;;10.40;4.13;;;13.10;97.40;;;;;;5076396;28;20819;-50
2023/05/24 04:20:12;;;;;;;16.07;3.53;;;13.50;97.50;;;;;;5094048;28;20463;-49
2023/05/24 04:22:39;;;;;;;13.53;5.13;;;13.40;97.40;;;;;;5075968;28;20450;-50
2023/05/24 04:25:08;;;;;;;13.83;3.23;;;13.70;97.50;;;;;;5075797;28;20558;-50
2023/05/24 04:27:36;;;;;;;15.00;4.37;;;13.20;97.00;;;;;;5076011;28;20482;-49
2023/05/24 04:30:09;;;;;;;18.70;5.83;;;13.20;96.90;;;;;;5075670;28;20488;-51
2023/05/24 04:32:36;;;;;;;13.80;4.90;;;13.40;97.00;;;;;;5076540;28;20479;-49
2023/05/24 04:35:04;;;;;;;11.10;3.87;;;13.80;97.00;;;;;;5076471;28;20447;-50
2023/05/24 04:37:33;;;;;;;14.30;4.07;;;13.20;96.60;;;;;;5093985;28;20534;-49
2023/05/24 04:39:59;;;;;;;15.47;4.20;;;12.70;96.10;;;;;;5075509;28;20540;-50
2023/05/24 04:42:30;;;;;;;12.03;4.37;;;13.20;96.40;;;;;;5094158;28;20403;-49
2023/05/24 04:44:57;;;;;;;11.40;3.93;;;13.60;96.60;;;;;;5093979;28;20474;-50
2023/05/24 04:47:25;;;;;;;12.07;4.10;;;13.20;96.40;;;;;;5093789;28;20489;-49
2023/05/24 04:49:52;;;;;;;15.77;4.10;;;13.00;96.30;;;;;;5093239;28;20479;-49
2023/05/24 04:52:18;;;;;;;10.30;4.40;;;13.50;96.50;;;;;;5093688;28;20781;-50
2023/05/24 04:54:45;;;;;;;16.93;5.00;;;13.30;96.30;;;;;;5093786;28;20438;-51
2023/05/24 04:57:12;;;;;;;15.47;4.33;;;13.80;96.50;;;;;;5093691;28;20430;-49
2023/05/24 04:59:38;;;;;;;14.27;4.10;;;13.40;96.30;;;;;;5093575;28;20440;-51
2023/05/24 05:02:05;;;;;;;11.30;4.37;;;13.60;96.30;;;;;;5093346;28;20432;-51
2023/05/24 05:04:33;;;;;;;16.10;4.93;;;13.20;95.90;;;;;;5093431;28;20476;-50
2023/05/24 05:07:00;;;;;;;12.70;5.10;;;13.70;95.90;;;;;;5093521;28;20407;-50
2023/05/24 05:09:27;;;;;;;15.53;4.27;;;13.40;95.80;;;;;;5093077;28;20531;-51
2023/05/24 05:11:53;;;;;;;11.73;4.80;;;13.70;96.00;;;;;;5093288;28;20432;-50
2023/05/24 05:14:20;;;;;;;12.77;4.07;;;13.60;96.00;;;;;;5093317;28;20535;-50
2023/05/24 05:16:47;;;;;;;13.93;4.70;;;13.90;96.10;;;;;;5093494;28;20913;-49
2023/05/24 05:19:13;;;;;;;17.10;4.30;;;13.50;95.80;;;;;;5092816;28;20446;-50
2023/05/24 05:21:41;;;;;;;14.00;4.80;;;13.90;95.80;;;;;;5092411;28;20427;-50
2023/05/24 05:24:08;;;;;;;16.47;4.90;;;13.50;95.50;;;;;;5092913;28;20429;-50
2023/05/24 05:26:35;;;;;;;17.13;4.20;;;13.70;95.60;;;;;;5092764;28;20468;-49
2023/05/24 05:29:01;;;;;;;22.83;5.20;;;13.70;95.80;;;;;;5092848;28;20431;-50
2023/05/24 05:31:29;;;;;;;20.20;4.77;;;13.40;95.50;;;;;;5093042;28;20438;-50
2023/05/24 05:33:56;;;;;;;18.17;5.37;;;13.50;95.50;;;;;;5092751;28;20424;-51
2023/05/24 05:36:23;;;;;;;19.23;5.47;;;13.50;95.50;;;;;;5092850;28;20780;-50
2023/05/24 05:38:51;;;;;;;21.97;5.90;;;13.70;95.60;;;;;;5092306;28;20436;-50
2023/05/24 05:41:17;;;;;;;19.40;5.57;;;14.10;95.70;;;;;;5092406;28;20462;-49
2023/05/24 05:43:44;;;;;;;16.53;5.17;;;13.80;95.50;;;;;;5092456;28;20406;-52
2023/05/24 05:46:13;;;;;;;17.33;5.27;;;14.00;95.50;;;;;;5091843;28;20477;-49
2023/05/24 05:48:40;;;;;;;17.93;5.93;;;14.20;95.90;;;;;;5091989;28;20460;-51
2023/05/24 05:51:07;;;;;;;16.77;5.30;;;13.80;95.10;;;;;;5092305;28;20443;-50
2023/05/24 05:53:33;;;;;;;23.30;5.40;;;14.00;95.10;;;;;;5091989;28;20436;-49
2023/05/24 05:56:02;;;;;;;21.37;5.87;;;14.30;95.10;;;;;;5091751;28;20439;-51
2023/05/24 05:58:28;;;;;;;19.00;6.67;;;14.50;95.10;;;;;;5091825;28;20446;-49
2023/05/24 06:00:55;;;;;;;18.93;6.47;;;14.40;94.90;;;;;;5091710;28;20444;-49
2023/05/24 06:03:21;;;;;;;21.33;5.40;;;14.40;94.80;;;;;;5092002;28;20431;-50
2023/05/24 06:05:48;;;;;;;18.90;5.60;;;14.10;94.60;;;;;;5092004;28;20480;-49
2023/05/24 06:08:15;;;;;;;14.20;4.17;;;14.00;94.40;;;;;;5092012;28;20456;-50
2023/05/24 06:10:42;;;;;;;20.60;6.00;;;14.70;94.60;;;;;;5091891;28;20457;-50
2023/05/24 06:13:10;;;;;;;22.40;5.93;;;14.20;94.30;;;;;;5091677;28;20436;-49
2023/05/24 06:15:36;;;;;;;18.33;6.10;;;14.00;94.20;;;;;;5073556;28;20858;-49
2023/05/24 06:18:03;;;;;;;14.67;5.50;;;13.90;94.00;;;;;;5091954;28;20924;-51
2023/05/24 06:20:30;;;;;;;15.50;5.13;;;14.50;94.20;;;;;;5091591;28;20461;-51
2023/05/24 06:22:57;;;;;;;14.53;5.87;;;14.70;94.20;;;;;;5091732;28;20805;-50
2023/05/24 06:25:26;;;;;;;21.27;5.03;;;14.60;94.20;;;;;;5091828;28;20451;-49
2023/05/24 06:27:52;;;;;;;14.93;5.40;;;14.30;93.90;;;;;;5073536;28;20450;-50
2023/05/24 06:30:20;;;;;;;18.53;6.13;;;14.50;94.00;;;;;;5091210;28;21009;-49
2023/05/24 06:32:47;;;;;;;15.80;6.00;;;14.80;94.10;;;;;;5091532;28;20431;-52
2023/05/24 06:35:14;;;;;;;21.00;5.60;;;14.70;94.00;;;;;;5092078;28;20428;-49
2023/05/24 06:37:40;;;;;;;16.83;5.20;;;14.90;94.00;;;;;;5091773;28;20980;-50
2023/05/24 06:40:08;;;;;;;15.37;5.00;;;14.50;93.80;;;;;;5073192;28;20467;-50
2023/05/24 06:42:35;;;;;;;17.13;5.33;;;14.50;93.90;;;;;;5073649;28;20440;-49
2023/05/24 06:45:02;;;;;;;22.80;6.17;;;14.50;93.90;;;;;;5091488;28;20475;-50
2023/05/24 06:47:30;;;;;;;16.70;5.30;;;14.80;94.10;;;;;;5073295;28;20447;-49
2023/05/24 06:49:57;;;;;;;19.87;5.83;;;14.60;93.80;;;;;;5090767;28;20555;-50
2023/05/24 06:52:23;;;;;;;25.03;6.30;;;15.10;93.80;;;;;;5091623;28;20403;-50
2023/05/24 06:54:52;;;;;;;15.47;5.77;;;14.80;93.60;;;;;;5091279;28;20435;-50
2023/05/24 06:57:18;;;;;;;15.83;5.20;;;14.90;93.60;;;;;;5091195;28;20482;-49
2023/05/24 06:59:45;;;;;;;16.40;5.77;;;14.80;93.50;;;;;;5091218;28;20464;-49
2023/05/24 07:02:12;;;;;;;17.97;6.20;;;14.90;93.60;;;;;;5073019;28;20469;-49
2023/05/24 07:04:41;;;;;;;21.53;6.20;;;15.10;93.60;;;;;;5091350;28;20414;-51
2023/05/24 07:07:11;;;;;;;19.40;6.47;;;15.20;93.60;;;;;;5091320;28;20483;-50
2023/05/24 07:09:39;;;;;;;18.70;5.63;;;15.00;93.40;;;;;;5090924;28;21169;-50
2023/05/24 07:12:06;;;;;;;18.60;6.10;;;15.60;93.70;;;;;;5091386;28;20437;-50
2023/05/24 07:14:32;;;;;;;29.57;6.63;;;15.40;93.50;;;;;;5091565;28;20432;-49
2023/05/24 07:16:59;;;;;;;14.83;5.50;;;15.50;93.80;;;;;;5091173;28;20996;-49
2023/05/24 07:19:28;;;;;;;20.87;5.67;;;15.20;93.30;;;;;;5090840;28;20415;-49
2023/05/24 07:21:56;;;;;;;23.20;6.00;;;15.10;93.30;;;;;;5091209;28;20463;-51
2023/05/24 07:24:23;;;;;;;21.10;5.07;;;15.50;93.40;;;;;;5091045;28;20453;-50
2023/05/24 07:26:49;;;;;;;23.63;6.53;;;15.50;93.70;;;;;;5091157;28;20828;-50
2023/05/24 07:29:16;;;;;;;22.33;6.47;;;15.40;93.30;;;;;;5090947;28;20395;-50
2023/05/24 07:31:43;;;;;;;33.50;6.80;;;15.40;93.30;;;;;;5091193;28;20471;-49
2023/05/24 07:34:09;;;;;;;18.13;6.17;;;15.70;93.20;;;;;;5091393;28;20768;-52
2023/05/24 07:36:36;;;;;;;19.47;5.30;;;15.70;93.00;;;;;;5091090;28;20433;-49
2023/05/24 07:39:05;;;;;;;22.47;5.70;;;15.70;92.80;;;;;;5090976;28;20429;-48
2023/05/24 07:41:32;;;;;;;25.07;7.50;;;16.10;92.90;;;;;;5090960;28;20547;-49
2023/05/24 07:43:59;;;;;;;19.73;5.50;;;16.00;92.60;;;;;;5091283;28;20414;-51
2023/05/24 07:46:25;;;;;;;18.53;5.57;;;15.80;92.20;;;;;;5093751;28;20451;-50
2023/05/24 07:48:52;;;;;;;14.40;5.57;;;16.20;92.20;;;;;;5095133;28;20434;-50
2023/05/24 07:51:19;;;;;;;24.73;5.60;;;16.10;91.90;;;;;;5095005;28;20489;-50
2023/05/24 07:53:46;;;;;;;17.13;6.83;;;16.40;92.10;;;;;;5077043;28;20445;-50
2023/05/24 07:56:14;;;;;;;19.40;6.60;;;16.50;92.20;;;;;;5076535;28;20427;-50
2023/05/24 07:58:42;;;;;;;19.03;6.13;;;16.40;92.00;;;;;;5094454;28;20410;-51
2023/05/24 08:01:09;;;;;;;20.17;6.43;;;16.10;91.80;;;;;;5094671;28;20440;-51
2023/05/24 08:03:36;;;;;;;21.87;5.70;;;16.30;92.20;;;;;;5094549;28;20415;-51
2023/05/24 08:06:03;;;;;;;20.27;6.50;;;16.40;91.90;;;;;;5094319;28;20470;-50
2023/05/24 08:08:30;;;;;;;23.93;5.67;;;16.50;91.80;;;;;;5094026;28;20524;-51
2023/05/24 08:10:57;;;;;;;12.57;4.20;;;16.20;91.60;;;;;;5094165;28;20439;-51
2023/05/24 08:13:25;;;;;;;10.03;3.70;;;15.90;91.40;;;;;;5094369;28;20471;-50
2023/05/24 08:15:51;;;;;;;11.63;4.80;;;15.90;91.10;;;;;;5094377;28;20803;-51
2023/05/24 08:18:18;;;;;;;16.17;5.80;;;16.00;91.00;;;;;;5093959;28;20961;-50
2023/05/24 08:20:45;;;;;;;18.70;5.20;;;16.10;91.10;;;;;;5094127;28;20427;-49
2023/05/24 08:23:12;;;;;;;18.63;5.50;;;16.10;91.20;;;;;;5094412;28;20423;-50
2023/05/24 08:25:39;;;;;;;20.63;6.50;;;16.40;91.30;;;;;;5094087;28;20559;-51
2023/05/24 08:28:07;;;;;;;14.77;5.37;;;16.20;91.20;;;;;;5093518;28;20423;-51
2023/05/24 08:30:35;;;;;;;32.43;6.70;;;16.30;91.10;;;;;;5093946;28;20463;-50
2023/05/24 08:33:02;;;;;;;18.70;6.93;;;16.10;91.10;;;;;;5093596;28;20425;-50
2023/05/24 08:35:29;;;;;;;18.37;5.47;;;16.60;91.30;;;;;;5094345;28;20421;-51
2023/05/24 08:37:56;;;;;;;20.17;6.27;;;16.30;91.10;;;;;;5093868;28;20927;-49
2023/05/24 08:40:23;;;;;;;30.30;6.67;;;16.30;91.00;;;;;;5093331;28;20453;-50
2023/05/24 08:42:52;;;;;;;15.77;5.50;;;16.10;90.90;;;;;;5094149;28;20934;-51
2023/05/24 08:45:21;;;;;;;18.80;5.13;;;15.80;90.60;;;;;;5093175;28;20949;-51
2023/05/24 08:47:50;;;;;;;21.73;6.20;;;16.50;90.90;;;;;;5093795;28;20521;-49
2023/05/24 08:50:17;;;;;;;20.90;6.13;;;16.20;90.70;;;;;;5092819;28;20503;-49
2023/05/24 08:52:46;;;;;;;18.80;5.70;;;16.40;90.80;;;;;;5093311;28;20441;-50
2023/05/24 08:55:13;;;;;;;10.87;5.10;;;16.40;90.80;;;;;;5093129;28;20504;-50
2023/05/24 08:57:40;;;;;;;9.83;4.77;;;16.50;90.70;;;;;;5093407;28;20750;-49
2023/05/24 09:00:10;;;;;;;19.20;6.30;;;16.70;90.60;;;;;;5092599;28;20453;-49
2023/05/24 09:02:40;;;;;;;13.63;5.20;;;16.50;90.50;;;;;;5093248;28;20438;-51
2023/05/24 09:05:11;;;;;;;13.20;6.10;;;16.50;90.40;;;;;;5093290;28;20819;-49
2023/05/24 09:07:41;;;;;;;15.00;5.30;;;16.70;90.50;;;;;;5093075;28;20481;-51
2023/05/24 09:10:10;;;;;;;14.73;4.27;;;16.60;90.30;;;;;;5092820;28;20450;-49
2023/05/24 09:12:38;;;;;;;18.30;6.47;;;16.60;90.20;;;;;;5092932;28;20632;-50
2023/05/24 09:15:07;;;;;;;20.37;5.93;;;16.60;90.30;;;;;;5074978;28;20950;-50
2023/05/24 09:17:36;;;;;;;19.43;5.90;;;16.60;90.30;;;;;;5093068;28;20426;-49
2023/05/24 09:20:05;;;;;;;16.37;6.30;;;16.60;90.20;;;;;;5074206;28;20978;-50
2023/05/24 09:22:36;;;;;;;21.97;5.60;;;16.80;90.20;;;;;;5092932;28;20478;-50
2023/05/24 09:25:04;;;;;;;10.03;4.80;;;16.80;89.70;;;;;;5092946;28;20448;-49
2023/05/24 09:27:35;;;;;;;19.40;5.57;;;16.90;89.50;;;;;;5092468;28;20496;-51
2023/05/24 09:30:04;;;;;;;16.50;5.87;;;16.90;89.40;;;;;;5073881;28;20501;-50
2023/05/24 09:32:31;;;;;;;14.03;5.00;;;17.10;88.80;;;;;;5092455;28;20433;-50
2023/05/24 09:34:59;;;;;;;13.40;5.17;;;17.20;88.20;;;;;;5074391;28;20429;-50
2023/05/24 09:37:28;;;;;;;19.80;6.23;;;17.40;88.10;;;;;;5074105;28;20463;-51
2023/05/24 09:39:56;;;;;;;16.80;6.00;;;17.50;87.70;;;;;;5091932;28;20444;-50
2023/05/24 09:42:27;;;;;;;11.40;4.70;;;17.80;87.20;;;;;;5092296;28;20451;-49
2023/05/24 09:45:00;;;;;;;15.50;5.50;;;17.60;86.50;;;;;;5074183;28;21089;-50
2023/05/24 09:47:29;;;;;;;15.27;5.50;;;17.60;86.50;;;;;;5073798;28;20693;-50
2023/05/24 09:49:56;;;;;;;12.10;4.93;;;17.60;86.20;;;;;;5091545;28;20537;-50
2023/05/24 09:52:23;;;;;;;8.80;3.67;;;17.60;85.90;;;;;;5073852;28;20442;-49
2023/05/24 09:54:50;;;;;;;11.03;3.90;;;17.70;85.20;;;;;;5092034;28;20923;-51
2023/05/24 09:57:21;;;;;;;7.73;4.70;;;18.00;85.60;;;;;;5092200;28;20934;-52
2023/05/24 09:59:48;;;;;;;13.90;4.73;;;17.50;84.60;;;;;;5091748;28;20804;-49
2023/05/24 10:02:17;;;;;;;17.17;5.30;;;17.40;84.40;;;;;;5092238;28;20456;-51
2023/05/24 10:04:44;;;;;;;14.47;5.10;;;17.90;84.70;;;;;;5092956;28;20453;-51
2023/05/24 10:07:12;;;;;;;18.50;6.90;;;18.00;84.30;;;;;;5091864;28;20454;-51
2023/05/24 10:09:39;;;;;;;12.77;5.40;;;18.20;84.00;;;;;;5090908;28;20436;-51
2023/05/24 10:12:08;;;;;;;10.27;3.90;;;18.60;84.00;;;;;;5073541;28;20459;-50
2023/05/24 10:14:37;;;;;;;8.57;3.83;;;18.10;83.00;;;;;;5091850;28;20471;-51
2023/05/24 10:17:04;;;;;;;9.77;4.70;;;18.20;81.50;;;;;;5091853;28;20431;-50
2023/05/24 10:19:31;;;;;;;15.53;4.80;;;18.40;81.40;;;;;;5091571;28;20501;-50
2023/05/24 10:21:59;;;;;;;12.30;5.03;;;18.10;81.00;;;;;;5091491;28;20410;-49
2023/05/24 10:24:29;;;;;;;9.73;4.20;;;18.50;81.40;;;;;;5091461;28;20436;-51
2023/05/24 10:26:58;;;;;;;9.33;5.13;;;18.40;81.30;;;;;;5091853;28;20481;-50
2023/05/24 10:29:35;;;;;;;14.57;4.73;;;17.90;80.60;;;;;;5091525;28;20431;-50
2023/05/24 10:32:04;;;;;;;19.33;6.30;;;18.40;81.60;;;;;;5091486;28;20424;-50
2023/05/24 10:34:31;;;;;;;12.63;4.47;;;18.70;81.90;;;;;;5091359;28;20445;-50
2023/05/24 10:36:59;;;;;;;12.43;4.53;;;18.50;81.10;;;;;;5091539;28;20423;-50
2023/05/24 10:39:26;;;;;;;13.43;4.80;;;18.80;81.40;;;;;;5091111;28;20956;-50
2023/05/24 10:41:55;;;;;;;11.47;5.10;;;18.80;80.80;;;;;;5091502;28;20415;-49
2023/05/24 10:44:28;;;;;;;13.97;5.43;;;18.50;79.90;;;;;;5091422;28;20443;-50
2023/05/24 10:47:06;;;;;;;8.90;4.03;;;18.70;80.10;;;;;;5091250;28;20459;-50
2023/05/24 10:49:33;;;;;;;12.00;4.47;;;19.10;79.10;;;;;;5091023;28;20841;-51
2023/05/24 10:52:08;;;;;;;13.00;5.50;;;19.10;78.70;;;;;;5091272;28;20444;-50
2023/05/24 10:54:35;;;;;;;12.83;4.63;;;19.30;78.60;;;;;;5091448;28;20948;-49
2023/05/24 10:57:03;;;;;;;7.90;4.30;;;19.20;77.90;;;;;;5091362;28;20429;-50
2023/05/24 10:59:36;;;;;;;10.93;4.73;;;19.00;77.40;;;;;;5090961;28;20447;-51
2023/05/24 11:02:08;;;;;;;11.17;4.67;;;18.90;77.30;;;;;;5091407;28;20896;-50
2023/05/24 11:04:38;;;;;;;16.20;4.90;;;18.90;77.30;;;;;;5091283;28;20989;-51
2023/05/24 11:07:09;;;;;;;13.00;4.57;;;19.30;78.80;;;;;;5072888;28;20518;-50
2023/05/24 11:09:36;;;;;;;13.67;5.10;;;19.00;77.90;;;;;;5091225;28;20432;-49
2023/05/24 11:12:07;;;;;;;13.20;5.30;;;18.60;77.20;;;;;;5091261;28;20448;-50
2023/05/24 11:14:38;;;;;;;11.87;4.47;;;18.80;77.30;;;;;;5091151;28;20490;-50
2023/05/24 11:17:06;;;;;;;10.93;4.70;;;18.50;77.40;;;;;;5091396;28;20436;-51
2023/05/24 11:19:35;;;;;;;11.00;4.57;;;18.40;77.60;;;;;;5091607;28;20439;-50
2023/05/24 11:22:03;;;;;;;10.70;4.23;;;18.40;77.90;;;;;;5094971;28;20432;-50
2023/05/24 11:24:30;;;;;;;7.83;4.40;;;18.10;78.00;;;;;;5094990;28;20807;-51
2023/05/24 11:26:57;;;;;;;11.20;4.17;;;18.40;78.30;;;;;;5095113;28;20891;-50
2023/05/24 11:29:24;;;;;;;8.53;4.27;;;18.20;78.20;;;;;;5094744;28;20427;-49
2023/05/24 11:31:52;;;;;;;9.30;4.40;;;17.70;78.00;;;;;;5094690;28;20443;-51
2023/05/24 11:34:20;;;;;;;9.57;3.93;;;17.60;78.20;;;;;;5094763;28;20568;-50
2023/05/24 11:36:47;;;;;;;8.10;3.53;;;18.10;78.80;;;;;;5095152;28;20461;-51
2023/05/24 11:39:14;;;;;;;11.10;4.72;;;17.90;78.50;;;;;;5093615;28;20797;-51
2023/05/24 11:41:41;;;;;;;8.87;4.30;;;18.20;76.90;;;;;;5094632;28;20221;-50
2023/05/24 11:44:10;;;;;;;9.87;4.30;;;18.60;76.30;;;;;;5094438;28;20908;-50
2023/05/24 11:46:38;;;;;;;8.33;3.80;;;18.70;77.50;;;;;;5094588;28;20471;-51
2023/05/24 11:49:05;;;;;;;8.80;3.40;;;18.80;77.50;;;;;;5094167;28;20428;-49
2023/05/24 11:51:34;;;;;;;16.67;3.83;;;19.10;77.50;;;;;;5083526;22;20500;-49
2023/05/24 11:54:01;;;;;;;8.73;3.93;;;18.70;76.90;;;;;;5054144;28;20442;-48
2023/05/24 11:56:30;;;;;;;11.20;3.90;;;18.90;76.70;;;;;;5035964;28;20462;-48
2023/05/24 11:59:08;;;;;;;11.70;3.63;;;18.70;75.30;;;;;;5054639;28;20813;-48
2023/05/24 12:01:35;;;;;;;10.30;4.00;;;18.90;74.70;;;;;;5053677;28;20888;-49
2023/05/24 12:04:01;;;;;;;9.97;3.80;;;18.10;73.50;;;;;;5054131;28;20442;-47
2023/05/24 12:06:36;;;;;;;9.00;3.97;;;18.20;73.70;;;;;;5054196;28;20444;-47
2023/05/24 12:09:07;;;;;;;7.10;3.20;;;18.40;74.00;;;;;;5053856;28;20434;-48
2023/05/24 12:11:33;;;;;;;8.97;4.40;;;18.50;74.50;;;;;;5036218;28;20478;-48
2023/05/24 12:14:00;;;;;;;9.35;4.05;;;18.70;74.50;;;;;;5053837;28;20511;-47
2023/05/24 12:16:30;;;;;;;10.70;3.30;;;18.50;73.60;;;;;;5053938;28;20200;-47
2023/05/24 12:18:57;;;;;;;10.10;3.43;;;18.60;73.60;;;;;;5053525;28;20442;-48
2023/05/24 12:21:24;;;;;;;10.20;4.27;;;18.30;73.10;;;;;;5035276;28;20960;-47
2023/05/24 12:23:52;;;;;;;7.93;3.67;;;19.10;73.70;;;;;;5054338;28;20430;-47
2023/05/24 12:26:21;;;;;;;7.90;4.00;;;18.10;73.50;;;;;;5053720;28;20958;-48
2023/05/24 12:28:53;;;;;;;7.70;4.00;;;18.30;75.50;;;;;;5053219;28;20486;-50
2023/05/24 12:31:20;;;;;;;7.73;3.70;;;18.60;76.40;;;;;;5052983;28;20429;-48
2023/05/24 12:33:47;;;;;;;8.03;4.03;;;18.30;76.40;;;;;;5036068;28;20437;-48
2023/05/24 12:36:14;;;;;;;9.13;3.73;;;18.70;76.70;;;;;;5053547;28;20438;-47
2023/05/24 12:38:40;;;;;;;8.37;3.80;;;18.30;76.00;;;;;;5053371;28;20426;-48
2023/05/24 12:41:10;;;;;;;6.07;4.07;;;18.90;77.50;;;;;;5053611;28;20435;-48
2023/05/24 12:43:37;;;;;;;10.30;4.20;;;18.40;76.00;;;;;;5053940;28;20508;-48